Vanquish — PHCU — position and weather

sailwx.info

Track history (hours):
 
Tides and Currents Weather Stations Pressure Air Temp Water Temp Dewpoint Dewpoint Depression Visibility Wind Speed Wind Dir Waves Ship Positions

Vanquish

Last reported at 2015-Jul-01 18:04 UTC. Time now 2015-Jul-02 00:50 UTC.
Position N 52°01' W 005°30'.

MMSI: 246138952.

Date/timePositionNaut miles runAvg speedWind from/ knotsBaromVisibWave heightAir tempDewpointWater temp
2015-Jul-01 18:04N 52°01' W 005°30'3312.3
2015-Jul-01 15:23N 51°32' W 005°06'7412.3
2015-Jul-01 09:24N 51°22' W 003°09'1417.0
2015-Jul-01 08:34N 51°29' W 002°49'5 4.6
2015-Jul-01 07:34N 51°30' W 002°42'0 0.0
2015-Jul-01 06:33N 51°30' W 002°42'0 0.0
2015-Jul-01 05:33N 51°30' W 002°42'0 0.0
2015-Jul-01 04:33N 51°30' W 002°42'0 0.0
2015-Jul-01 03:34N 51°30' W 002°42'0 0.0
2015-Jul-01 02:33N 51°30' W 002°42'0 0.0
2015-Jul-01 01:33N 51°30' W 002°42'0 0.0
2015-Jul-01 00:33N 51°30' W 002°42'0 0.0
2015-Jun-30 23:33N 51°30' W 002°42'0 0.0
2015-Jun-30 22:33N 51°30' W 002°42'0 0.0
2015-Jun-30 21:33N 51°30' W 002°42'0 0.0
2015-Jun-30 20:33N 51°30' W 002°42'0 0.0
2015-Jun-30 19:33N 51°30' W 002°42'1 0.8
2015-Jun-30 18:33N 51°30' W 002°44'8 8.2
2015-Jun-30 17:34N 51°27' W 002°56'8811.0
2015-Jun-30 09:33N 51°36' W 005°17'2411.4
2015-Jun-30 07:28N 51°59' W 005°30'1010.4
2015-Jun-30 06:30N 52°09' W 005°31'11 9.9
2015-Jun-30 05:24N 52°20' W 005°32'910.4
2015-Jun-30 04:30N 52°29' W 005°32'8812.6
2015-Jun-29 21:32N 53°55' W 006°00'8 0.7
2015-Jun-29 09:22N 54°02' W 006°08'7715.2
2015-Jun-29 04:20N 52°49' W 005°34'1215.8
2015-Jun-29 03:33N 52°36' W 005°33'1514.8
2015-Jun-29 02:33N 52°21' W 005°33'1413.8
2015-Jun-29 01:31N 52°07' W 005°31'10211.3
2015-Jun-28 16:31N 51°27' W 002°60'1111.6
2015-Jun-28 15:33N 51°30' W 002°43'0 0.3
2015-Jun-28 14:32N 51°30' W 002°42'0 0.0
2015-Jun-28 13:32N 51°30' W 002°42'0 0.0
2015-Jun-28 12:32N 51°30' W 002°42'0 0.0
2015-Jun-28 11:32N 51°30' W 002°42'0 0.0
2015-Jun-28 10:32N 51°30' W 002°42'0 0.0
2015-Jun-28 09:32N 51°30' W 002°42'0 0.0
2015-Jun-28 08:32N 51°30' W 002°42'0 0.0
2015-Jun-28 07:32N 51°30' W 002°42'0 0.0
2015-Jun-28 06:32N 51°30' W 002°42'0 0.0
2015-Jun-28 05:32N 51°30' W 002°42'0 0.0
2015-Jun-28 04:32N 51°30' W 002°42'1 0.7
2015-Jun-28 03:33N 51°31' W 002°43'7 6.9
2015-Jun-28 02:33N 51°28' W 002°53'106 4.8
2015-Jun-27 04:33N 52°09' W 005°31'2311.4
2015-Jun-27 02:30N 52°33' W 005°33'1212.3
2015-Jun-27 01:33N 52°44' W 005°34'7214.1
2015-Jun-26 20:25N 53°55' W 005°60'  
2015-Jun-24 12:24N 51°25' W 003°03'1012.0
2015-Jun-24 11:33N 51°29' W 002°48'4 3.5
2015-Jun-24 10:31N 51°30' W 002°42'0 0.0
2015-Jun-24 09:31N 51°30' W 002°42'0 0.0
2015-Jun-24 08:31N 51°30' W 002°42'0 0.0
2015-Jun-24 07:31N 51°30' W 002°42'0 0.0
2015-Jun-24 06:31N 51°30' W 002°42'0 0.0
2015-Jun-24 05:31N 51°30' W 002°42'0 0.0
2015-Jun-24 04:31N 51°30' W 002°42'0 0.0
2015-Jun-24 03:31N 51°30' W 002°42'0 0.0
2015-Jun-24 02:31N 51°30' W 002°42'0 0.0
2015-Jun-24 01:31N 51°30' W 002°42'0 0.0
2015-Jun-24 00:32N 51°30' W 002°42'0 0.0
2015-Jun-23 23:31N 51°30' W 002°42'0 0.0
2015-Jun-23 22:31N 51°30' W 002°42'0 0.0
2015-Jun-23 21:33N 51°30' W 002°42'0 0.4
2015-Jun-23 20:33N 51°30' W 002°43'3 2.9
2015-Jun-23 19:33N 51°30' W 002°47'816.3
2015-Jun-23 19:06N 51°27' W 002°59'190 4.8
2015-Jun-22 03:33N 54°01' W 006°03'1110.6
2015-Jun-22 02:31N 53°50' W 005°57'  
Track history (hours):
 
Tides and Currents Weather Stations Pressure Air Temp Water Temp Dewpoint Dewpoint Depression Visibility Wind Speed Wind Dir Waves Ship Positions

Vanquish

Last reported at 2015-Jul-01 18:04 UTC. Time now 2015-Jul-02 00:50 UTC.
Position N 52°01' W 005°30'.

MMSI: 246138952.

Date/timePositionNaut miles runAvg speedWind from/ knotsBaromVisibWave heightAir tempDewpointWater temp
2015-Jul-01 18:04N 52°01' W 005°30'3312.3
2015-Jul-01 15:23N 51°32' W 005°06'7412.3
2015-Jul-01 09:24N 51°22' W 003°09'1417.0
2015-Jul-01 08:34N 51°29' W 002°49'5 4.6
2015-Jul-01 07:34N 51°30' W 002°42'0 0.0
2015-Jul-01 06:33N 51°30' W 002°42'0 0.0
2015-Jul-01 05:33N 51°30' W 002°42'0 0.0
2015-Jul-01 04:33N 51°30' W 002°42'0 0.0
2015-Jul-01 03:34N 51°30' W 002°42'0 0.0
2015-Jul-01 02:33N 51°30' W 002°42'0 0.0
2015-Jul-01 01:33N 51°30' W 002°42'0 0.0
2015-Jul-01 00:33N 51°30' W 002°42'0 0.0
2015-Jun-30 23:33N 51°30' W 002°42'0 0.0
2015-Jun-30 22:33N 51°30' W 002°42'0 0.0
2015-Jun-30 21:33N 51°30' W 002°42'0 0.0
2015-Jun-30 20:33N 51°30' W 002°42'0 0.0
2015-Jun-30 19:33N 51°30' W 002°42'1 0.8
2015-Jun-30 18:33N 51°30' W 002°44'8 8.2
2015-Jun-30 17:34N 51°27' W 002°56'8811.0
2015-Jun-30 09:33N 51°36' W 005°17'2411.4
2015-Jun-30 07:28N 51°59' W 005°30'1010.4
2015-Jun-30 06:30N 52°09' W 005°31'11 9.9
2015-Jun-30 05:24N 52°20' W 005°32'910.4
2015-Jun-30 04:30N 52°29' W 005°32'8812.6
2015-Jun-29 21:32N 53°55' W 006°00'8 0.7
2015-Jun-29 09:22N 54°02' W 006°08'7715.2
2015-Jun-29 04:20N 52°49' W 005°34'1215.8
2015-Jun-29 03:33N 52°36' W 005°33'1514.8
2015-Jun-29 02:33N 52°21' W 005°33'1413.8
2015-Jun-29 01:31N 52°07' W 005°31'10211.3
2015-Jun-28 16:31N 51°27' W 002°60'1111.6
2015-Jun-28 15:33N 51°30' W 002°43'0 0.3
2015-Jun-28 14:32N 51°30' W 002°42'0 0.0
2015-Jun-28 13:32N 51°30' W 002°42'0 0.0
2015-Jun-28 12:32N 51°30' W 002°42'0 0.0
2015-Jun-28 11:32N 51°30' W 002°42'0 0.0
2015-Jun-28 10:32N 51°30' W 002°42'0 0.0
2015-Jun-28 09:32N 51°30' W 002°42'0 0.0
2015-Jun-28 08:32N 51°30' W 002°42'0 0.0
2015-Jun-28 07:32N 51°30' W 002°42'0 0.0
2015-Jun-28 06:32N 51°30' W 002°42'0 0.0
2015-Jun-28 05:32N 51°30' W 002°42'0 0.0
2015-Jun-28 04:32N 51°30' W 002°42'1 0.7
2015-Jun-28 03:33N 51°31' W 002°43'7 6.9
2015-Jun-28 02:33N 51°28' W 002°53'106 4.8
2015-Jun-27 04:33N 52°09' W 005°31'2311.4
2015-Jun-27 02:30N 52°33' W 005°33'1212.3
2015-Jun-27 01:33N 52°44' W 005°34'7214.1
2015-Jun-26 20:25N 53°55' W 005°60'  
2015-Jun-24 12:24N 51°25' W 003°03'1012.0
2015-Jun-24 11:33N 51°29' W 002°48'4 3.5
2015-Jun-24 10:31N 51°30' W 002°42'0 0.0
2015-Jun-24 09:31N 51°30' W 002°42'0 0.0
2015-Jun-24 08:31N 51°30' W 002°42'0 0.0
2015-Jun-24 07:31N 51°30' W 002°42'0 0.0
2015-Jun-24 06:31N 51°30' W 002°42'0 0.0
2015-Jun-24 05:31N 51°30' W 002°42'0 0.0
2015-Jun-24 04:31N 51°30' W 002°42'0 0.0
2015-Jun-24 03:31N 51°30' W 002°42'0 0.0
2015-Jun-24 02:31N 51°30' W 002°42'0 0.0
2015-Jun-24 01:31N 51°30' W 002°42'0 0.0
2015-Jun-24 00:32N 51°30' W 002°42'0 0.0
2015-Jun-23 23:31N 51°30' W 002°42'0 0.0
2015-Jun-23 22:31N 51°30' W 002°42'0 0.0
2015-Jun-23 21:33N 51°30' W 002°42'0 0.4
2015-Jun-23 20:33N 51°30' W 002°43'3 2.9
2015-Jun-23 19:33N 51°30' W 002°47'816.3
2015-Jun-23 19:06N 51°27' W 002°59'190 4.8
2015-Jun-22 03:33N 54°01' W 006°03'1110.6
2015-Jun-22 02:31N 53°50' W 005°57'  

Dump ship's entire track history